Terminal Aerodrome Forecast
Issued by NWS

Home | Current Version | Previous Version | Text Only | Print | Product List | Glossary On
Versions: 1 2 3 4 5 6 7 8 9 10 11 12 13 14 15 16 17 18 19 20 21 22 23 24 25 26 27 28 29 30 31 32 33 34
000
FTUS42 KGSP 280531
TAFHKY
TAF
KHKY 280531Z 2806/2906 00000KT P6SM BKN250
     FM280800 00000KT 5SM BR BKN250
     FM281300 00000KT P6SM BKN250
     FM281700 14003KT P6SM BKN060 PROB30 2817/2823 4SM TSRA BKN040CB
     FM282300 00000KT P6SM BKN060 PROB30 2823/2903 4SM TSRA BKN040CB
     FM290300 00000KT P6SM SCT060 BKN250=

USA.gov is the U.S. government's official web portal to all federal, state and local government web resources and services.